Sunday, November 19, 2017, 5:26 AM EST
Back to Local

KIZG, Fryeburg Eastern Slopes Rgnl

Location: Fryeburg, ME, United States Lat: 43.983
Local Time: 5:26 AM EST (10:26 GMT) Lon: -70.95
Time Zone: US/Eastern Elev: 452 ft

Show me the last for .
Show Decoded

2017-11-19 04:54 METAR KIZG 190954Z AUTO 00000KT 5SM -RA BR OVC009 01/01 A2927 RMK AO2 SLP916
                 P0009 T00060006 =
2017-11-19 03:54 METAR KIZG 190854Z AUTO 00000KT 4SM +RA BR OVC005 01/01 A2931 RMK AO2 SLP928
                 P0007 60025 T00060006 58048 =
2017-11-19 03:10 METAR KIZG 190810Z AUTO 00000KT 8SM -RA BKN005 OVC010 01/01 A2934 RMK AO2 P0000
                 T00060006 =
2017-11-19 03:01 METAR KIZG 190801Z AUTO 00000KT 8SM -RA SCT005 OVC010 01/01 A2935 RMK AO2 PRESFR
                 P0000 T00060006 =
2017-11-19 02:54 METAR KIZG 190754Z AUTO 00000KT 9SM -RA OVC010 01/01 A2936 RMK AO2 SLP946 P0005
                 T00060006 =
2017-11-19 02:10 METAR KIZG 190710Z AUTO 00000KT 5SM -RA BR FEW003 OVC010 01/01 A2940 RMK AO2
                 P0002 T00060006 =
2017-11-19 01:54 METAR KIZG 190654Z AUTO 00000KT 4SM RA BR OVC013 01/01 A2942 RMK AO2
                 UPE41RAB02E10B41 SLP965 P0013 T00060006 =
2017-11-19 01:20 METAR KIZG 190620Z AUTO 00000KT 4SM UP BR OVC009 00/00 A2943 RMK AO2 RAB02E10
                 P0004 T00000000 =
2017-11-19 00:54 METAR KIZG 190554Z AUTO 00000KT 2 1/2SM UP BR BKN005 OVC010 00/00 A2945 RMK AO2
                 VIS 1 3/4V4 SLP977 P0006 60024 T00000000 10017 20000 58030 =
2017-11-19 00:04 METAR KIZG 190504Z AUTO 00000KT 3SM UP BR BKN005 OVC013 00/00 A2949 RMK AO2
                 P0001 T00000000 =
2017-11-18 23:54 METAR KIZG 190454Z AUTO 00000KT 3SM UP BR SCT006 OVC013 00/00 A2949 RMK AO2
                 SLP992 P0006 T00000000 400501094 =
2017-11-18 23:50 METAR KIZG 190450Z AUTO 00000KT 3SM UP BR FEW006 OVC013 00/00 A2950 RMK AO2
                 P0005 =
2017-11-18 22:54 METAR KIZG 190354Z AUTO 00000KT 4SM UP BR OVC012 00/00 A2954 RMK AO2 RAE34UPB34
                 SLP008 P0007 T00000000 =
2017-11-18 22:45 METAR KIZG 190345Z AUTO 00000KT 2 1/2SM UP BR OVC011 00/00 A2955 RMK AO2
                 RAE34UPB34 P0006 T00000000 =
2017-11-18 21:54 METAR KIZG 190254Z AUTO 00000KT 6SM -RA BR OVC012 01/01 A2957 RMK AO2 SLP020
                 P0005 60005 T00060006 58035 =
2017-11-18 21:02 METAR KIZG 190202Z AUTO 00000KT 7SM -RA OVC013 01/01 A2962 RMK AO2 P0001
                 T00060006 =
2017-11-18 20:54 METAR KIZG 190154Z AUTO 00000KT 8SM -RA OVC015 01/01 A2962 RMK AO2 UPB33E35RAB35
                 SLP037 P0000 T00060006 =
2017-11-18 19:54 METAR KIZG 190054Z AUTO 20003KT 10SM OVC024 02/M03 A2966 RMK AO2 SLP050
                 T00171033 =
2017-11-18 18:54 METAR KIZG 182354Z AUTO 00000KT 10SM OVC029 01/M03 A2968 RMK AO2 RAB28E51 SLP057
                 P0000 60000 T00111033 10050 20011 56015 =
2017-11-18 18:46 METAR KIZG 182346Z AUTO 00000KT 10SM -RA OVC027 01/M04 A2968 RMK AO2 RAB28 P0000
                 T00111039 =
2017-11-18 17:54 METAR KIZG 182254Z AUTO 00000KT 10SM FEW033 BKN045 OVC055 03/M06 A2969 RMK AO2
                 SLP062 T00281061 =
2017-11-18 16:54 METAR KIZG 182154Z AUTO 00000KT 10SM OVC080 03/M07 A2970 RMK AO2 SLP065
                 T00281072 =
2017-11-18 15:54 METAR KIZG 182054Z AUTO 10003KT 10SM OVC110 03/M07 A2972 RMK AO2 SLP072
                 T00281072 56024 =
2017-11-18 14:54 METAR KIZG 181954Z AUTO 10005KT 10SM FEW085 OVC110 04/M09 A2974 RMK AO2 SLP077
                 T00391089 =
2017-11-18 13:54 METAR KIZG 181854Z AUTO 00000KT 10SM OVC110 04/M10 A2976 RMK AO2 SLP082
                 T00441100 =
2017-11-18 12:54 METAR KIZG 181754Z AUTO 19004KT 10SM CLR 04/M09 A2980 RMK AO2 SLP096 T00441089
                 10044 21094 56035 =
2017-11-18 11:54 METAR KIZG 181654Z AUTO 10003KT 10SM CLR 04/M08 A2982 RMK AO2 SLP104 T00391078 =
2017-11-18 10:54 METAR KIZG 181554Z AUTO 12004KT 10SM CLR 02/M07 A2987 RMK AO2 SLP121 T00221067 =
2017-11-18 09:54 METAR KIZG 181454Z AUTO 10004KT 10SM CLR 00/M04 A2990 RMK AO2 SLP133 T00001044
                 58008 =
2017-11-18 08:54 METAR KIZG 181354Z AUTO 00000KT 10SM CLR M03/M04 A2991 RMK AO2 SLP137 T10331044
                 =
2017-11-18 07:54 METAR KIZG 181254Z AUTO 00000KT 10SM CLR M06/M07 A2993 RMK AO2 SLP142 T10561067
                 =
2017-11-18 06:54 METAR KIZG 181154Z AUTO 23003KT 10SM CLR M09/M10 A2992 RMK AO2 SLP142 I6000
                 T10941100 11072 21094 51004 =
2017-11-18 05:54 METAR KIZG 181054Z AUTO 00000KT 10SM CLR M09/M09 A2992 RMK AO2 SLP139 I1000
                 T10891094 =

Support USWX by starting your Amazon purchase here.